createdAt,value
2018-05-16T00:00:45.170Z,35.40
2018-05-16T00:01:45.335Z,31.40
2018-05-16T00:02:45.166Z,31.60
2018-05-16T00:03:45.165Z,30.30
2018-05-16T00:04:45.167Z,33.70
2018-05-16T00:05:45.164Z,30.50
2018-05-16T00:06:45.164Z,28.40
2018-05-16T00:07:45.235Z,28.30
2018-05-16T00:08:45.168Z,26.50
2018-05-16T00:09:45.164Z,26.90
2018-05-16T00:10:45.163Z,28.30
2018-05-16T00:11:45.166Z,27.50
2018-05-16T00:12:45.221Z,28.40
2018-05-16T00:13:45.179Z,28.10
2018-05-16T00:14:45.165Z,27.70
2018-05-16T00:15:45.162Z,29.80
2018-05-16T00:16:45.206Z,27.50
2018-05-16T00:17:45.162Z,30.20
2018-05-16T00:18:45.166Z,31.10
2018-05-16T00:19:45.177Z,30.40
2018-05-16T00:20:45.162Z,30.50
2018-05-16T00:21:45.205Z,33.50
2018-05-16T00:22:45.162Z,35.30
2018-05-16T00:23:45.157Z,31.30
2018-05-16T00:24:45.158Z,31.30
2018-05-16T00:25:45.162Z,31.80
2018-05-16T00:26:45.194Z,30.70
2018-05-16T00:27:45.168Z,31.00
2018-05-16T00:28:45.158Z,28.80
2018-05-16T00:29:45.155Z,29.90
2018-05-16T00:30:45.161Z,29.50
2018-05-16T00:31:45.306Z,29.80
2018-05-16T00:32:45.864Z,31.20
2018-05-16T00:33:45.155Z,32.00
2018-05-16T00:34:45.179Z,30.20
2018-05-16T00:35:45.151Z,30.50
2018-05-16T00:36:45.156Z,28.00
2018-05-16T00:37:45.233Z,28.50
2018-05-16T00:38:45.156Z,29.80
2018-05-16T00:39:45.188Z,31.30
2018-05-16T00:40:45.151Z,33.10
2018-05-16T00:41:45.154Z,36.00
2018-05-16T00:42:45.190Z,31.70
2018-05-16T00:43:45.148Z,30.30
2018-05-16T00:44:45.165Z,31.10
2018-05-16T00:45:45.149Z,30.50
2018-05-16T00:46:45.148Z,29.90
2018-05-16T00:47:45.194Z,30.50
2018-05-16T00:48:45.155Z,35.20
2018-05-16T00:49:45.144Z,31.00
2018-05-16T00:50:45.145Z,30.10
2018-05-16T00:51:45.146Z,26.40
2018-05-16T00:52:45.194Z,29.60
2018-05-16T00:53:45.145Z,32.90
2018-05-16T00:54:45.145Z,33.80
2018-05-16T00:55:45.145Z,34.60
2018-05-16T00:56:45.149Z,35.80
2018-05-16T00:57:45.196Z,32.40
2018-05-16T00:58:45.149Z,32.70
2018-05-16T00:59:45.143Z,37.70
2018-05-16T01:00:45.144Z,36.90
2018-05-16T01:01:45.149Z,32.20
2018-05-16T01:02:45.193Z,34.60
2018-05-16T01:03:45.145Z,38.90
2018-05-16T01:04:45.140Z,35.30
2018-05-16T01:05:45.142Z,35.90
2018-05-16T01:06:45.183Z,39.20
2018-05-16T01:07:45.142Z,38.10
2018-05-16T01:08:45.141Z,37.40
2018-05-16T01:09:45.136Z,39.60
2018-05-16T01:10:45.138Z,38.40
2018-05-16T01:11:45.180Z,36.60
2018-05-16T01:12:45.136Z,32.70
2018-05-16T01:13:45.137Z,37.20
2018-05-16T01:14:45.320Z,35.80
2018-05-16T01:15:45.143Z,34.40
2018-05-16T01:16:53.076Z,34.50
2018-05-16T01:17:45.133Z,33.20
2018-05-16T01:18:45.134Z,34.30
2018-05-16T01:19:45.573Z,37.10
2018-05-16T01:20:45.133Z,40.40
2018-05-16T01:21:45.185Z,40.60
2018-05-16T01:22:45.150Z,44.20
2018-05-16T01:23:45.132Z,40.90
2018-05-16T01:24:45.130Z,42.20
2018-05-16T01:25:45.139Z,44.30
2018-05-16T01:26:45.168Z,45.00
2018-05-16T01:27:45.125Z,43.20
2018-05-16T01:28:45.130Z,40.60
2018-05-16T01:29:45.155Z,42.30
2018-05-16T01:30:45.126Z,44.70
2018-05-16T01:31:56.070Z,45.20
2018-05-16T01:32:45.130Z,49.40
2018-05-16T01:33:45.122Z,45.50
2018-05-16T01:34:45.124Z,45.00
2018-05-16T01:35:45.123Z,42.90
2018-05-16T01:36:45.195Z,47.00
2018-05-16T01:37:45.124Z,42.90
2018-05-16T01:38:45.120Z,43.50
2018-05-16T01:39:45.334Z,42.50
2018-05-16T01:40:45.121Z,41.60
2018-05-16T01:41:45.167Z,45.90
2018-05-16T01:42:46.004Z,43.20
2018-05-16T01:43:45.122Z,46.20
2018-05-16T01:44:45.120Z,47.10
2018-05-16T01:45:45.121Z,48.00
2018-05-16T01:46:45.168Z,48.40
2018-05-16T01:47:45.116Z,46.80
2018-05-16T01:48:45.117Z,44.10
2018-05-16T01:49:45.116Z,45.40
2018-05-16T01:50:45.142Z,42.50
2018-05-16T01:51:45.164Z,43.60
2018-05-16T01:52:45.121Z,47.40
2018-05-16T01:53:45.113Z,43.70
2018-05-16T01:54:45.114Z,44.70
2018-05-16T01:55:45.125Z,45.40
2018-05-16T01:56:45.166Z,45.10
2018-05-16T01:57:45.138Z,45.00
2018-05-16T01:58:45.111Z,44.30
2018-05-16T01:59:45.106Z,43.90
2018-05-16T02:00:45.131Z,40.30
2018-05-16T02:01:45.113Z,43.30
2018-05-16T02:03:06.154Z,45.10
2018-05-16T02:03:45.110Z,46.10
2018-05-16T02:04:45.107Z,43.10
2018-05-16T02:05:45.107Z,46.40
2018-05-16T02:06:45.109Z,47.40
2018-05-16T02:07:45.180Z,41.80
2018-05-16T02:08:45.109Z,46.00
2018-05-16T02:09:45.109Z,51.10
2018-05-16T02:10:45.105Z,48.90
2018-05-16T02:11:45.103Z,46.50
2018-05-16T02:12:45.109Z,47.70
2018-05-16T02:13:45.144Z,50.50
2018-05-16T02:14:45.111Z,50.10
2018-05-16T02:15:45.105Z,52.40
2018-05-16T02:16:45.100Z,53.90
2018-05-16T02:17:45.100Z,51.80
2018-05-16T02:18:47.392Z,54.20
2018-05-16T02:19:45.099Z,52.40
2018-05-16T02:20:45.096Z,56.20
2018-05-16T02:21:45.106Z,52.90
2018-05-16T02:22:45.096Z,53.30
2018-05-16T02:23:45.096Z,49.70
2018-05-16T02:24:45.145Z,55.80
2018-05-16T02:25:45.094Z,50.30
2018-05-16T02:26:45.096Z,53.40
2018-05-16T02:27:45.093Z,52.40
2018-05-16T02:28:45.094Z,50.00
2018-05-16T02:29:45.134Z,47.60
2018-05-16T02:30:45.095Z,51.40
2018-05-16T02:31:45.120Z,52.40
2018-05-16T02:32:45.086Z,54.60
2018-05-16T02:33:45.087Z,51.70
2018-05-16T02:34:45.153Z,53.60
2018-05-16T02:35:45.091Z,49.40
2018-05-16T02:36:45.088Z,50.30
2018-05-16T02:37:45.104Z,47.00
2018-05-16T02:38:45.087Z,47.80
2018-05-16T02:39:45.083Z,51.20
2018-05-16T02:40:45.128Z,50.70
2018-05-16T02:41:45.088Z,51.90
2018-05-16T02:42:45.084Z,51.80
2018-05-16T02:43:45.092Z,51.70
2018-05-16T02:44:45.086Z,49.70
2018-05-16T02:45:48.577Z,48.00
2018-05-16T02:46:45.117Z,52.80
2018-05-16T02:47:45.089Z,53.90
2018-05-16T02:48:45.720Z,48.60
2018-05-16T02:49:45.081Z,51.10
2018-05-16T02:50:56.073Z,51.70
2018-05-16T02:51:45.081Z,51.80
2018-05-16T02:52:45.086Z,52.30
2018-05-16T02:53:45.078Z,50.80
2018-05-16T02:54:45.079Z,52.40
2018-05-16T02:55:45.131Z,54.10
2018-05-16T02:56:45.077Z,53.70
2018-05-16T02:57:45.082Z,52.80
2018-05-16T02:58:45.138Z,56.20
2018-05-16T02:59:45.076Z,53.00
2018-05-16T03:00:45.115Z,54.10
2018-05-16T03:01:45.078Z,54.20
2018-05-16T03:02:45.062Z,58.30
2018-05-16T03:03:45.065Z,57.20
2018-05-16T03:04:45.061Z,56.00
2018-05-16T03:05:45.105Z,59.40
2018-05-16T03:06:45.065Z,57.50
2018-05-16T03:07:45.065Z,54.70
2018-05-16T03:08:45.061Z,55.90
2018-05-16T03:09:45.701Z,54.90
2018-05-16T03:10:45.121Z,54.40
2018-05-16T03:11:45.058Z,54.70
2018-05-16T03:12:45.062Z,53.90
2018-05-16T03:13:45.050Z,60.30
2018-05-16T03:14:45.065Z,59.50
2018-05-16T03:15:45.054Z,58.70
2018-05-16T03:16:45.102Z,56.20
2018-05-16T03:17:45.051Z,56.70
2018-05-16T03:18:45.050Z,56.20
2018-05-16T03:19:45.060Z,53.80
2018-05-16T03:20:45.059Z,53.20
2018-05-16T03:21:45.095Z,57.80
2018-05-16T03:22:45.056Z,58.70
2018-05-16T03:23:45.051Z,59.30
2018-05-16T03:24:45.115Z,58.00
2018-05-16T03:25:45.044Z,50.50
2018-05-16T03:26:45.101Z,49.90
2018-05-16T03:27:45.052Z,51.70
2018-05-16T03:28:45.048Z,51.80
2018-05-16T03:29:45.053Z,50.60
2018-05-16T03:30:45.049Z,48.90
2018-05-16T03:31:45.092Z,51.70
2018-05-16T03:32:45.049Z,52.50
2018-05-16T03:33:45.054Z,51.60
2018-05-16T03:34:45.045Z,54.90
2018-05-16T03:35:45.098Z,55.90
2018-05-16T03:36:45.092Z,54.30
2018-05-16T03:37:45.073Z,54.30
2018-05-16T03:38:45.036Z,53.50
2018-05-16T03:39:45.042Z,53.40
2018-05-16T03:40:45.111Z,55.40
2018-05-16T03:41:45.034Z,54.20
2018-05-16T03:42:45.037Z,56.80
2018-05-16T03:43:45.040Z,56.10
2018-05-16T03:44:45.036Z,55.20
2018-05-16T03:45:45.035Z,58.50
2018-05-16T03:46:45.565Z,59.10
2018-05-16T03:47:45.039Z,54.60
2018-05-16T03:48:45.034Z,55.10
2018-05-16T03:49:45.031Z,53.00
2018-05-16T03:50:45.401Z,56.40
2018-05-16T03:51:45.027Z,55.60
2018-05-16T03:52:45.027Z,54.80
2018-05-16T03:53:45.032Z,54.00
2018-05-16T03:54:45.031Z,53.30
2018-05-16T03:55:45.925Z,50.90
2018-05-16T03:56:45.077Z,49.70
2018-05-16T03:57:45.023Z,51.60
2018-05-16T03:58:45.023Z,49.20
2018-05-16T03:59:45.032Z,53.30
2018-05-16T04:00:45.043Z,50.50
2018-05-16T04:01:56.068Z,47.40
2018-05-16T04:02:45.024Z,49.20
2018-05-16T04:03:45.102Z,53.90
2018-05-16T04:04:45.019Z,52.70
2018-05-16T04:05:45.015Z,49.10
2018-05-16T04:06:45.015Z,51.00
2018-05-16T04:07:45.072Z,47.90
2018-05-16T04:08:45.008Z,47.60
2018-05-16T04:09:45.015Z,51.30
2018-05-16T04:10:45.012Z,49.00
2018-05-16T04:11:45.035Z,48.70
2018-05-16T04:12:45.169Z,46.50
2018-05-16T04:13:45.010Z,46.80
2018-05-16T04:14:45.035Z,49.90
2018-05-16T04:15:45.011Z,51.00
2018-05-16T04:16:45.009Z,44.30
2018-05-16T04:17:45.010Z,47.00
2018-05-16T04:18:45.058Z,47.40
2018-05-16T04:19:45.001Z,49.00
2018-05-16T04:20:45.011Z,45.90
2018-05-16T04:21:44.998Z,45.30
2018-05-16T04:22:45.003Z,46.60
2018-05-16T04:23:45.054Z,46.50
2018-05-16T04:24:45.001Z,46.00
2018-05-16T04:25:45.649Z,49.00
2018-05-16T04:26:44.999Z,47.30
2018-05-16T04:27:44.999Z,46.30
2018-05-16T04:28:45.087Z,47.50
2018-05-16T04:29:45.003Z,49.20
2018-05-16T04:30:45.000Z,47.90
2018-05-16T04:31:44.992Z,47.20
2018-05-16T04:32:45.015Z,48.20
2018-05-16T04:33:45.044Z,47.30
2018-05-16T04:34:44.995Z,47.10
2018-05-16T04:35:45.002Z,47.70
2018-05-16T04:36:44.992Z,48.30
2018-05-16T04:37:45.001Z,45.40
2018-05-16T04:38:45.041Z,48.50
2018-05-16T04:39:44.987Z,46.90
2018-05-16T04:40:44.997Z,44.70
2018-05-16T04:41:44.993Z,42.60
2018-05-16T04:42:44.991Z,45.00
2018-05-16T04:43:45.038Z,44.90
2018-05-16T04:44:44.988Z,43.70
2018-05-16T04:45:44.988Z,41.30
2018-05-16T04:46:44.994Z,42.60
2018-05-16T04:47:44.989Z,43.60
2018-05-16T04:48:45.147Z,41.00
2018-05-16T04:49:44.991Z,42.90
2018-05-16T04:50:44.994Z,39.40
2018-05-16T04:51:44.992Z,40.20
2018-05-16T04:52:45.075Z,40.00
2018-05-16T04:53:44.985Z,41.20
2018-05-16T04:54:45.030Z,39.80
2018-05-16T04:55:45.838Z,41.10
2018-05-16T04:56:44.987Z,40.40
2018-05-16T04:57:44.986Z,41.90
2018-05-16T04:58:44.992Z,41.80
2018-05-16T04:59:45.371Z,41.20
2018-05-16T05:00:44.990Z,37.40
2018-05-16T05:01:44.986Z,39.50
2018-05-16T05:02:44.983Z,38.60
2018-05-16T05:03:44.987Z,40.90
2018-05-16T05:04:45.035Z,39.70
2018-05-16T05:05:45.046Z,41.10
2018-05-16T05:06:45.000Z,36.10
2018-05-16T05:07:44.991Z,35.10
2018-05-16T05:08:44.995Z,33.80
2018-05-16T05:09:44.999Z,34.30
2018-05-16T05:10:52.568Z,34.10
2018-05-16T05:11:44.990Z,29.50
2018-05-16T05:12:44.981Z,32.00
2018-05-16T05:13:44.992Z,31.10
2018-05-16T05:14:44.984Z,33.50
2018-05-16T05:15:45.044Z,31.40
2018-05-16T05:16:45.008Z,33.30
2018-05-16T05:17:44.989Z,30.60
2018-05-16T05:18:44.987Z,32.60
2018-05-16T05:19:44.981Z,31.20
2018-05-16T05:20:59.073Z,31.40
2018-05-16T05:21:44.991Z,30.70
2018-05-16T05:22:44.990Z,30.20
2018-05-16T05:23:45.237Z,31.30
2018-05-16T05:24:44.984Z,30.80
2018-05-16T05:25:52.649Z,33.40
2018-05-16T05:26:45.006Z,32.60
2018-05-16T05:27:44.981Z,34.90
2018-05-16T05:28:44.984Z,31.90
2018-05-16T05:29:44.981Z,32.00
2018-05-16T05:30:45.709Z,31.60
2018-05-16T05:31:44.987Z,32.80
2018-05-16T05:32:44.986Z,31.40
2018-05-16T05:33:44.984Z,32.50
2018-05-16T05:34:44.996Z,31.80
2018-05-16T05:35:45.045Z,34.40
2018-05-16T05:36:44.989Z,30.60
2018-05-16T05:37:45.430Z,32.30
2018-05-16T05:38:44.984Z,32.70
2018-05-16T05:39:44.983Z,33.00
2018-05-16T05:40:46.568Z,34.10
2018-05-16T05:41:44.990Z,34.40
2018-05-16T05:42:44.979Z,33.80
2018-05-16T05:43:44.984Z,36.50
2018-05-16T05:44:44.987Z,32.70
2018-05-16T05:48:48.339Z,35.20
2018-05-16T05:49:48.288Z,33.70
2018-05-16T05:55:58.329Z,34.30
2018-05-16T05:56:23.229Z,35.10
2018-05-16T05:57:23.244Z,35.60
2018-05-16T05:58:23.228Z,35.80
2018-05-16T05:59:23.225Z,33.40
2018-05-16T06:00:23.233Z,32.20
2018-05-16T06:01:23.300Z,31.70
2018-05-16T06:02:23.229Z,34.90
2018-05-16T06:03:23.229Z,35.00
2018-05-16T06:04:23.249Z,35.20
2018-05-16T06:05:23.313Z,33.60
2018-05-16T06:07:54.869Z,32.10
2018-05-16T06:08:54.825Z,31.60
2018-05-16T06:09:54.830Z,31.40
2018-05-16T06:10:54.831Z,29.00
2018-05-16T06:11:54.988Z,29.40
2018-05-16T06:12:54.833Z,30.40
2018-05-16T06:13:54.833Z,30.90
2018-05-16T06:14:54.834Z,27.90
2018-05-16T06:15:54.839Z,28.80
2018-05-16T06:16:54.898Z,27.70
2018-05-16T06:17:54.840Z,30.10
2018-05-16T06:18:54.871Z,27.30
2018-05-16T06:19:54.862Z,26.10
2018-05-16T06:20:54.838Z,28.00
2018-05-16T06:21:54.882Z,29.80
2018-05-16T06:22:54.859Z,27.90
2018-05-16T06:23:54.840Z,24.70
2018-05-16T06:24:54.851Z,26.60
2018-05-16T06:25:54.840Z,29.90
2018-05-16T06:26:55.012Z,27.10
2018-05-16T06:27:54.900Z,27.30
2018-05-16T06:28:54.848Z,27.90
2018-05-16T06:29:54.854Z,27.60
2018-05-16T06:30:54.847Z,26.50
2018-05-16T06:31:54.901Z,26.30
2018-05-16T06:32:54.855Z,24.60
2018-05-16T06:33:54.848Z,25.10
2018-05-16T06:34:54.852Z,25.10
2018-05-16T06:35:55.555Z,26.20
2018-05-16T06:36:55.488Z,26.10
2018-05-16T06:37:54.857Z,26.60
2018-05-16T06:38:54.860Z,27.00
2018-05-16T06:39:54.870Z,25.10
2018-05-16T06:40:54.853Z,26.60
2018-05-16T06:45:19.845Z,24.70
2018-05-16T06:45:58.244Z,25.30
2018-05-16T06:46:58.189Z,27.00
2018-05-16T06:47:58.252Z,25.30
2018-05-16T06:48:58.189Z,24.40
2018-05-16T06:49:58.220Z,22.70
2018-05-16T06:50:58.193Z,22.60
2018-05-16T06:51:58.185Z,21.90
2018-05-16T06:54:47.951Z,22.60
2018-05-16T06:55:30.785Z,23.30
2018-05-16T06:56:31.356Z,23.50
2018-05-16T06:57:45.310Z,22.40
2018-05-16T06:58:30.414Z,23.90
2018-05-16T06:59:30.236Z,24.50
2018-05-16T07:00:29.850Z,22.00
2018-05-16T07:01:29.873Z,22.40
2018-05-16T07:02:51.077Z,23.20
2018-05-16T07:03:29.859Z,25.10
2018-05-16T07:04:29.860Z,23.50
2018-05-16T07:05:29.856Z,23.20
2018-05-16T07:06:29.855Z,22.30
2018-05-16T07:07:29.896Z,24.70
2018-05-16T07:08:29.872Z,23.50
2018-05-16T07:09:29.865Z,22.90
2018-05-16T07:10:29.864Z,23.70
2018-05-16T07:11:29.868Z,22.60
2018-05-16T07:14:04.637Z,24.80
2018-05-16T07:15:01.558Z,21.00
2018-05-16T07:16:01.562Z,20.80
2018-05-16T07:17:02.120Z,23.70
2018-05-16T07:18:01.570Z,23.90
2018-05-16T07:19:01.572Z,23.60
2018-05-16T07:20:01.565Z,23.50
2018-05-16T07:21:01.567Z,23.40
2018-05-16T07:22:02.129Z,23.00
2018-05-16T07:23:01.575Z,21.60
2018-05-16T07:24:01.579Z,23.80
2018-05-16T07:25:01.574Z,24.00
2018-05-16T07:26:01.579Z,21.50
2018-05-16T07:27:01.626Z,20.60
2018-05-16T07:28:01.574Z,21.20
2018-05-16T07:29:01.578Z,22.30
2018-05-16T07:30:01.580Z,25.30
2018-05-16T07:31:01.583Z,22.90
2018-05-16T07:32:01.633Z,23.30
2018-05-16T07:33:01.587Z,22.40
2018-05-16T07:34:01.711Z,19.20
2018-05-16T07:35:01.600Z,21.70
2018-05-16T07:36:01.740Z,22.30
2018-05-16T07:37:01.588Z,23.20
2018-05-16T07:38:01.671Z,22.70
2018-05-16T07:39:01.592Z,22.00
2018-05-16T07:40:01.600Z,22.50
2018-05-16T07:41:01.644Z,26.00
2018-05-16T07:45:04.996Z,23.50
2018-05-16T07:46:04.953Z,27.50
2018-05-16T07:47:05.150Z,22.10
2018-05-16T07:48:04.961Z,22.30
2018-05-16T07:49:04.960Z,22.30
2018-05-16T07:50:04.959Z,25.90
2018-05-16T07:51:04.976Z,23.30
2018-05-16T07:52:19.059Z,22.90
2018-05-16T07:53:04.970Z,24.50
2018-05-16T07:54:04.989Z,24.20
2018-05-16T07:55:04.974Z,21.90
2018-05-16T07:56:05.015Z,23.20
2018-05-16T07:57:08.066Z,21.30
2018-05-16T07:58:05.849Z,21.90
2018-05-16T07:59:05.012Z,22.30
2018-05-16T08:00:04.978Z,22.10
2018-05-16T08:01:04.995Z,21.40
2018-05-16T08:02:05.030Z,28.60
2018-05-16T08:03:04.991Z,23.60
2018-05-16T08:04:04.991Z,25.50
2018-05-16T08:05:06.646Z,24.30
2018-05-16T08:06:04.991Z,22.80
2018-05-16T08:07:05.040Z,22.70
2018-05-16T08:08:05.004Z,22.90
2018-05-16T08:09:05.007Z,23.70
2018-05-16T08:10:05.017Z,24.20
2018-05-16T08:11:05.053Z,24.20
2018-05-16T08:12:05.007Z,23.90
2018-05-16T08:13:05.004Z,23.50
2018-05-16T08:14:05.005Z,23.30
2018-05-16T08:15:05.027Z,23.70
2018-05-16T08:16:05.061Z,23.50
2018-05-16T08:17:05.030Z,23.30
2018-05-16T08:18:05.032Z,22.80
2018-05-16T08:19:05.021Z,21.60
2018-05-16T08:20:05.031Z,23.50
2018-05-16T08:21:05.084Z,23.10
2018-05-16T08:22:05.030Z,25.50
2018-05-16T08:23:05.037Z,23.30
2018-05-16T08:24:05.043Z,22.50
2018-05-16T08:25:05.048Z,21.00
2018-05-16T08:26:05.043Z,22.60
2018-05-16T08:27:05.088Z,24.10
2018-05-16T08:28:05.041Z,24.20
2018-05-16T08:29:05.060Z,23.80
2018-05-16T08:30:05.059Z,22.10
2018-05-16T08:31:07.172Z,24.70
2018-05-16T08:32:05.057Z,22.80
2018-05-16T08:33:05.067Z,25.30
2018-05-16T08:34:05.060Z,23.70
2018-05-16T08:35:05.063Z,22.80
2018-05-16T08:36:05.335Z,23.20
2018-05-16T08:37:05.073Z,24.50
2018-05-16T08:38:05.559Z,25.50
2018-05-16T08:39:05.070Z,26.70
2018-05-16T08:40:06.368Z,24.50
2018-05-16T08:41:34.924Z,26.90
2018-05-16T08:42:05.086Z,27.40
2018-05-16T08:43:05.145Z,28.10
2018-05-16T08:44:05.103Z,29.20
2018-05-16T08:45:05.098Z,29.70
2018-05-16T08:47:36.948Z,28.10
2018-05-16T08:48:38.367Z,27.20
2018-05-16T08:49:36.952Z,28.40
2018-05-16T08:50:55.353Z,30.20
2018-05-16T08:51:39.173Z,30.10
2018-05-16T08:52:36.983Z,28.50
2018-05-16T08:53:37.090Z,29.10
2018-05-16T08:54:36.952Z,28.00
2018-05-16T08:58:41.729Z,30.70
2018-05-16T08:59:41.441Z,26.70
2018-05-16T09:00:41.433Z,27.70
2018-05-16T09:01:41.065Z,25.20
2018-05-16T09:02:40.831Z,26.20
2018-05-16T09:03:40.836Z,25.80
2018-05-16T09:04:42.234Z,25.50
2018-05-16T09:07:13.569Z,24.80
2018-05-16T09:08:12.433Z,25.20
2018-05-16T09:09:13.048Z,25.70
2018-05-16T09:10:12.440Z,25.40
2018-05-16T09:11:26.591Z,25.10
2018-05-16T09:12:12.934Z,25.10
2018-05-16T09:13:12.892Z,22.80
2018-05-16T09:14:12.434Z,23.70
2018-05-16T09:15:12.442Z,23.40
2018-05-16T09:16:12.760Z,22.50
2018-05-16T09:17:12.503Z,22.60
2018-05-16T09:18:12.450Z,24.00
2018-05-16T09:19:12.440Z,21.30
2018-05-16T09:20:12.448Z,22.30
2018-05-16T09:21:21.082Z,23.00
2018-05-16T09:22:13.392Z,25.90
2018-05-16T09:23:12.466Z,21.20
2018-05-16T09:24:12.453Z,22.60
2018-05-16T09:25:12.487Z,21.50
2018-05-16T09:26:16.260Z,23.10
2018-05-16T09:27:12.578Z,21.90
2018-05-16T09:28:12.471Z,23.60
2018-05-16T09:29:12.485Z,20.00
2018-05-16T09:30:12.514Z,20.70
2018-05-16T09:36:25.514Z,20.90
2018-05-16T09:36:47.425Z,21.10
2018-05-16T09:37:47.427Z,21.90
2018-05-16T09:38:47.431Z,20.90
2018-05-16T09:39:47.429Z,20.40
2018-05-16T09:40:47.454Z,20.70
2018-05-16T09:41:52.521Z,21.10
2018-05-16T09:42:47.439Z,20.80
2018-05-16T09:43:48.398Z,22.20
2018-05-16T09:44:47.446Z,21.00
2018-05-16T09:45:47.562Z,23.20
2018-05-16T09:46:58.025Z,23.10
2018-05-16T09:47:47.470Z,22.50
2018-05-16T09:48:47.451Z,22.10
2018-05-16T09:49:47.456Z,20.40
2018-05-16T09:50:47.458Z,21.60
2018-05-16T09:51:47.507Z,21.20
2018-05-16T09:52:47.464Z,21.80
2018-05-16T09:53:48.385Z,21.60
2018-05-16T09:54:47.484Z,20.50
2018-05-16T09:55:47.567Z,20.70
2018-05-16T09:56:47.524Z,20.10
2018-05-16T09:57:47.479Z,19.70
2018-05-16T09:58:47.489Z,18.70
2018-05-16T09:59:47.497Z,18.60
2018-05-16T10:00:47.502Z,19.10
2018-05-16T10:01:47.568Z,18.20
2018-05-16T10:02:47.593Z,19.00
2018-05-16T10:03:48.072Z,19.20
2018-05-16T10:04:47.587Z,18.70
2018-05-16T10:05:47.516Z,17.90
2018-05-16T10:06:53.174Z,16.10
2018-05-16T10:07:47.525Z,20.90
2018-05-16T10:08:47.535Z,16.90
2018-05-16T10:09:47.550Z,17.80
2018-05-16T10:10:47.539Z,17.40
2018-05-16T10:13:20.046Z,17.70
2018-05-16T10:14:19.222Z,18.70
2018-05-16T10:15:19.228Z,19.00
2018-05-16T10:16:19.239Z,18.10
2018-05-16T10:17:33.314Z,19.20
2018-05-16T10:18:19.242Z,18.60
2018-05-16T10:19:19.251Z,17.90
2018-05-16T10:20:19.369Z,17.80
2018-05-16T10:21:19.259Z,19.30
2018-05-16T10:25:44.675Z,17.40
2018-05-16T10:26:22.609Z,18.30
2018-05-16T10:27:23.186Z,17.90
2018-05-16T10:28:22.618Z,18.30
2018-05-16T10:29:22.625Z,17.90
2018-05-16T10:30:22.651Z,18.10
2018-05-16T10:31:43.685Z,17.80
2018-05-16T10:32:22.638Z,17.70
2018-05-16T10:33:22.641Z,18.20
2018-05-16T10:34:22.657Z,22.10
2018-05-16T10:35:22.650Z,18.20
2018-05-16T10:36:22.662Z,17.80
2018-05-16T10:37:22.717Z,19.10
2018-05-16T10:38:22.669Z,18.70
2018-05-16T10:39:22.878Z,17.50
2018-05-16T10:40:22.678Z,17.80
2018-05-16T10:41:22.742Z,17.50
2018-05-16T10:42:22.749Z,17.40
2018-05-16T10:43:22.689Z,18.10
2018-05-16T10:44:22.697Z,17.50
2018-05-16T10:45:22.834Z,18.00
2018-05-16T10:46:22.708Z,17.20
2018-05-16T10:47:22.710Z,16.70
2018-05-16T10:48:22.774Z,17.20
2018-05-16T10:49:22.720Z,18.40
2018-05-16T10:50:22.729Z,17.80
2018-05-16T10:51:22.722Z,18.10
2018-05-16T10:52:22.777Z,18.20
2018-05-16T10:53:47.563Z,18.10
2018-05-16T10:54:22.735Z,17.70
2018-05-16T10:55:22.763Z,18.10
2018-05-16T10:56:22.749Z,18.80
2018-05-16T10:57:22.891Z,18.40
2018-05-16T10:58:22.755Z,18.10
2018-05-16T10:59:22.762Z,18.20
2018-05-16T11:00:22.766Z,18.40
2018-05-16T11:01:22.768Z,19.30
2018-05-16T11:02:22.798Z,18.20
2018-05-16T11:03:22.847Z,19.60
2018-05-16T11:04:22.777Z,19.10
2018-05-16T11:05:22.773Z,18.80
2018-05-16T11:06:22.787Z,18.40
2018-05-16T11:07:37.533Z,18.00
2018-05-16T11:08:22.796Z,17.70
2018-05-16T11:09:22.809Z,18.00
2018-05-16T11:10:22.807Z,17.20
2018-05-16T11:11:22.797Z,18.10
2018-05-16T11:12:22.842Z,17.80
2018-05-16T11:13:22.797Z,18.50
2018-05-16T11:14:22.805Z,18.90
2018-05-16T11:15:22.802Z,19.50
2018-05-16T11:16:23.712Z,18.40
2018-05-16T11:17:22.810Z,18.80
2018-05-16T11:18:23.602Z,18.10
2018-05-16T11:19:22.815Z,19.20
2018-05-16T11:20:22.818Z,18.90
2018-05-16T11:21:22.890Z,19.00
2018-05-16T11:22:22.995Z,18.30
2018-05-16T11:23:22.844Z,18.80
2018-05-16T11:24:22.831Z,18.70
2018-05-16T11:25:22.829Z,19.00
2018-05-16T11:26:22.883Z,17.70
2018-05-16T11:27:22.840Z,17.20
2018-05-16T11:28:22.836Z,18.30
2018-05-16T11:29:22.843Z,17.60
2018-05-16T11:30:22.865Z,18.00
2018-05-16T11:31:23.951Z,18.40
2018-05-16T11:32:22.849Z,18.70
2018-05-16T11:33:22.854Z,17.40
2018-05-16T11:34:22.871Z,17.50
2018-05-16T11:35:22.876Z,18.00
2018-05-16T11:36:22.869Z,18.30
2018-05-16T11:37:22.901Z,17.40
2018-05-16T11:38:22.860Z,17.80
2018-05-16T11:39:22.863Z,18.00
2018-05-16T11:40:22.863Z,18.10
2018-05-16T11:41:22.873Z,17.40
2018-05-16T11:42:22.924Z,17.90
2018-05-16T11:43:22.883Z,17.80
2018-05-16T11:44:22.905Z,17.30
2018-05-16T11:45:22.890Z,17.80
2018-05-16T11:46:24.703Z,17.70
2018-05-16T11:47:23.836Z,17.40
2018-05-16T11:48:27.527Z,18.00
2018-05-16T11:49:23.157Z,18.20
2018-05-16T11:50:22.910Z,18.30
2018-05-16T11:51:22.940Z,18.00
2018-05-16T11:52:22.897Z,17.70
2018-05-16T11:53:22.991Z,17.40
2018-05-16T11:54:22.914Z,17.60
2018-05-16T11:55:22.915Z,16.40
2018-05-16T11:56:22.958Z,16.90
2018-05-16T11:57:23.887Z,16.60
2018-05-16T11:58:22.923Z,16.70
2018-05-16T11:59:22.948Z,18.30
2018-05-16T12:00:22.937Z,18.50
2018-05-16T12:01:22.982Z,17.40
2018-05-16T12:02:22.946Z,17.50
2018-05-16T12:03:22.943Z,18.70
2018-05-16T12:04:22.943Z,19.20
2018-05-16T12:05:22.945Z,18.20
2018-05-16T12:06:22.996Z,19.60
2018-05-16T12:07:22.943Z,18.90
2018-05-16T12:08:22.939Z,18.40
2018-05-16T12:09:22.955Z,19.90
2018-05-16T12:10:22.957Z,19.80
2018-05-16T12:11:22.985Z,18.60
2018-05-16T12:12:23.013Z,18.60
2018-05-16T12:13:22.960Z,18.50
2018-05-16T12:14:22.963Z,18.80
2018-05-16T12:15:22.966Z,18.30
2018-05-16T12:16:23.079Z,18.40
2018-05-16T12:17:22.971Z,18.50
2018-05-16T12:18:22.971Z,18.40
2018-05-16T12:19:22.983Z,18.70
2018-05-16T12:20:22.979Z,18.30
2018-05-16T12:21:22.978Z,18.40
2018-05-16T12:22:23.051Z,18.40
2018-05-16T12:23:22.991Z,18.30
2018-05-16T12:24:22.994Z,18.40
2018-05-16T12:25:23.000Z,18.90
2018-05-16T12:26:23.292Z,19.30
2018-05-16T12:27:23.057Z,18.30
2018-05-16T12:28:23.014Z,20.40
2018-05-16T12:29:23.143Z,19.00
2018-05-16T12:30:23.019Z,19.10
2018-05-16T12:31:23.025Z,18.40
2018-05-16T12:32:26.587Z,18.50
2018-05-16T12:33:23.026Z,19.20
2018-05-16T12:34:23.019Z,18.90
2018-05-16T12:35:23.027Z,18.30
2018-05-16T12:36:23.026Z,18.90
2018-05-16T12:41:58.028Z,16.70
2018-05-16T12:42:57.972Z,16.00
2018-05-16T12:43:57.982Z,15.20
2018-05-16T12:44:57.978Z,15.60
2018-05-16T12:45:57.977Z,15.40
2018-05-16T12:46:58.033Z,16.10
2018-05-16T12:47:57.973Z,15.80
2018-05-16T12:48:57.985Z,16.30
2018-05-16T12:49:58.177Z,16.20
2018-05-16T12:50:58.541Z,16.50
2018-05-16T12:51:58.384Z,15.90
2018-05-16T12:52:58.062Z,14.90
2018-05-16T12:53:58.042Z,15.10
2018-05-16T12:54:58.006Z,14.60
2018-05-16T12:55:58.015Z,14.20
2018-05-16T12:56:58.042Z,14.90
2018-05-16T12:58:08.580Z,14.80
2018-05-16T12:58:58.023Z,14.30
2018-05-16T12:59:58.027Z,14.20
2018-05-16T13:00:58.051Z,14.10
2018-05-16T13:01:58.275Z,15.00
2018-05-16T13:02:58.054Z,14.60
2018-05-16T13:03:58.067Z,14.30
2018-05-16T13:04:58.079Z,14.20
2018-05-16T13:05:58.063Z,14.00
2018-05-16T13:06:58.226Z,14.20
2018-05-16T13:07:58.090Z,14.00
2018-05-16T13:08:58.102Z,14.10
2018-05-16T13:09:58.102Z,14.40
2018-05-16T13:10:58.112Z,13.70
2018-05-16T13:11:58.132Z,14.20
2018-05-16T13:12:58.208Z,13.90
2018-05-16T13:13:58.131Z,14.70
2018-05-16T13:14:58.139Z,14.90
2018-05-16T13:15:58.152Z,14.30
2018-05-16T13:16:58.722Z,13.90
2018-05-16T13:17:58.235Z,14.20
2018-05-16T13:18:58.150Z,12.10
2018-05-16T13:19:58.171Z,11.70
2018-05-16T13:20:58.167Z,11.70
2018-05-16T13:21:58.172Z,12.30
2018-05-16T13:22:58.260Z,12.10
2018-05-16T13:23:58.188Z,12.60
2018-05-16T13:24:58.181Z,11.90
2018-05-16T13:25:58.204Z,12.90
2018-05-16T13:26:58.284Z,11.90
2018-05-16T13:31:12.684Z,10.70
2018-05-16T13:32:02.101Z,11.70
2018-05-16T13:33:02.102Z,11.70
2018-05-16T13:34:02.163Z,10.70